createdAt,value
2019-03-20T00:00:41.818Z,13.40
2019-03-20T00:01:46.369Z,13.27
2019-03-20T00:02:50.823Z,12.73
2019-03-20T00:03:55.164Z,15.97
2019-03-20T00:04:59.648Z,12.60
2019-03-20T00:06:04.001Z,11.13
2019-03-20T00:07:08.375Z,12.67
2019-03-20T00:08:12.782Z,12.20
2019-03-20T00:09:17.162Z,13.87
2019-03-20T00:10:21.492Z,13.63
2019-03-20T00:11:25.932Z,15.40
2019-03-20T00:12:30.344Z,11.60
2019-03-20T00:13:34.772Z,16.40
2019-03-20T00:14:39.140Z,14.60
2019-03-20T00:15:43.578Z,12.43
2019-03-20T00:16:47.947Z,13.43
2019-03-20T00:17:52.459Z,12.40
2019-03-20T00:18:56.856Z,10.50
2019-03-20T00:20:01.257Z,16.57
2019-03-20T00:21:05.699Z,14.03
2019-03-20T00:22:10.466Z,15.07
2019-03-20T00:23:14.998Z,13.27
2019-03-20T00:24:19.344Z,16.77
2019-03-20T00:25:23.839Z,16.03
2019-03-20T00:26:28.299Z,16.13
2019-03-20T00:27:32.697Z,15.20
2019-03-20T00:28:37.129Z,14.73
2019-03-20T00:29:41.503Z,15.63
2019-03-20T00:30:46.024Z,16.93
2019-03-20T00:31:50.373Z,19.13
2019-03-20T00:32:54.787Z,18.20
2019-03-20T00:33:59.185Z,12.30
2019-03-20T00:35:03.566Z,16.17
2019-03-20T00:36:08.147Z,13.37
2019-03-20T00:37:12.587Z,14.83
2019-03-20T00:38:16.958Z,15.87
2019-03-20T00:39:21.464Z,17.43
2019-03-20T00:40:25.834Z,16.37
2019-03-20T00:41:30.324Z,18.13
2019-03-20T00:42:35.582Z,18.83
2019-03-20T00:43:40.103Z,16.23
2019-03-20T00:44:44.560Z,18.13
2019-03-20T00:45:48.912Z,17.60
2019-03-20T00:46:53.344Z,16.20
2019-03-20T00:47:57.817Z,18.17
2019-03-20T00:49:02.332Z,13.97
2019-03-20T00:50:08.876Z,16.33
2019-03-20T00:51:13.242Z,14.60
2019-03-20T00:52:17.615Z,20.63
2019-03-20T00:53:22.094Z,16.07
2019-03-20T00:54:26.485Z,16.17
2019-03-20T00:55:30.893Z,15.57
2019-03-20T00:56:35.359Z,15.67
2019-03-20T00:57:39.808Z,17.97
2019-03-20T00:58:44.243Z,15.07
2019-03-20T00:59:48.609Z,16.77
2019-03-20T01:00:52.988Z,18.80
2019-03-20T01:01:57.336Z,16.47
2019-03-20T01:03:01.701Z,15.60
2019-03-20T01:04:06.243Z,16.43
2019-03-20T01:05:12.857Z,18.27
2019-03-20T01:06:17.276Z,22.57
2019-03-20T01:07:21.894Z,17.57
2019-03-20T01:08:26.247Z,17.27
2019-03-20T01:09:30.565Z,17.83
2019-03-20T01:10:34.907Z,20.90
2019-03-20T01:11:39.311Z,16.50
2019-03-20T01:12:43.723Z,20.73
2019-03-20T01:13:48.087Z,19.77
2019-03-20T01:14:52.541Z,17.03
2019-03-20T01:15:57.028Z,18.83
2019-03-20T01:17:01.329Z,25.50
2019-03-20T01:18:05.705Z,18.50
2019-03-20T01:19:10.080Z,20.40
2019-03-20T01:20:15.901Z,23.30
2019-03-20T01:21:20.686Z,21.70
2019-03-20T01:22:25.124Z,19.53
2019-03-20T01:23:29.450Z,19.77
2019-03-20T01:24:33.874Z,17.80
2019-03-20T01:25:38.295Z,21.63
2019-03-20T01:26:42.802Z,22.43
2019-03-20T01:27:47.145Z,21.00
2019-03-20T01:28:51.648Z,18.40
2019-03-20T01:29:56.091Z,17.77
2019-03-20T01:31:00.573Z,15.37
2019-03-20T01:32:05.071Z,15.23
2019-03-20T01:33:10.457Z,19.33
2019-03-20T01:34:14.925Z,18.10
2019-03-20T01:35:23.758Z,20.00
2019-03-20T01:36:25.465Z,19.70
2019-03-20T01:37:29.873Z,18.80
2019-03-20T01:38:34.321Z,19.03
2019-03-20T01:39:38.832Z,19.47
2019-03-20T01:40:43.337Z,22.03
2019-03-20T01:41:47.836Z,19.13
2019-03-20T01:42:52.280Z,20.33
2019-03-20T01:43:56.707Z,18.77
2019-03-20T01:45:01.151Z,16.23
2019-03-20T01:46:05.710Z,17.37
2019-03-20T01:47:10.120Z,18.57
2019-03-20T01:48:15.399Z,22.47
2019-03-20T01:49:19.754Z,18.80
2019-03-20T01:50:24.298Z,17.53
2019-03-20T01:51:28.738Z,18.23
2019-03-20T01:52:33.103Z,16.17
2019-03-20T01:53:37.512Z,21.13
2019-03-20T01:54:41.975Z,20.40
2019-03-20T01:55:46.312Z,16.23
2019-03-20T01:56:50.749Z,16.60
2019-03-20T01:57:55.148Z,15.70
2019-03-20T01:58:59.462Z,19.33
2019-03-20T02:00:04.216Z,18.73
2019-03-20T02:01:08.630Z,21.57
2019-03-20T02:02:13.081Z,22.80
2019-03-20T02:03:17.548Z,20.47
2019-03-20T02:04:22.009Z,18.23
2019-03-20T02:05:35.040Z,20.33
2019-03-20T02:06:32.711Z,20.40
2019-03-20T02:07:37.188Z,20.20
2019-03-20T02:08:41.605Z,22.17
2019-03-20T02:09:46.201Z,22.77
2019-03-20T02:10:50.545Z,20.13
2019-03-20T02:11:54.925Z,18.67
2019-03-20T02:12:59.405Z,21.53
2019-03-20T02:14:04.028Z,20.33
2019-03-20T02:15:11.364Z,20.07
2019-03-20T02:16:15.692Z,21.13
2019-03-20T02:17:20.236Z,20.27
2019-03-20T02:18:24.685Z,19.43
2019-03-20T02:19:30.439Z,17.70
2019-03-20T02:20:34.866Z,23.43
2019-03-20T02:21:39.284Z,19.53
2019-03-20T02:22:43.810Z,20.90
2019-03-20T02:23:48.140Z,22.40
2019-03-20T02:24:52.453Z,22.57
2019-03-20T02:25:56.844Z,23.87
2019-03-20T02:27:01.700Z,19.87
2019-03-20T02:28:06.079Z,24.23
2019-03-20T02:29:10.430Z,21.80
2019-03-20T02:30:16.399Z,20.70
2019-03-20T02:31:24.088Z,25.13
2019-03-20T02:32:28.553Z,21.87
2019-03-20T02:33:33.130Z,22.93
2019-03-20T02:34:37.507Z,27.10
2019-03-20T02:35:51.495Z,21.20
2019-03-20T02:36:47.944Z,20.97
2019-03-20T02:37:52.446Z,25.27
2019-03-20T02:38:56.930Z,21.43
2019-03-20T02:40:01.438Z,23.03
2019-03-20T02:41:05.975Z,19.90
2019-03-20T02:42:10.358Z,20.00
2019-03-20T02:43:14.814Z,21.10
2019-03-20T02:44:19.122Z,18.97
2019-03-20T02:45:23.816Z,17.97
2019-03-20T02:46:28.182Z,27.53
2019-03-20T02:47:32.627Z,24.63
2019-03-20T02:48:36.977Z,23.10
2019-03-20T02:49:41.349Z,23.43
2019-03-20T02:50:45.749Z,26.87
2019-03-20T02:51:50.163Z,24.73
2019-03-20T02:52:54.485Z,22.57
2019-03-20T02:53:58.981Z,21.90
2019-03-20T02:55:03.418Z,20.80
2019-03-20T02:56:07.844Z,19.90
2019-03-20T02:57:12.339Z,24.83
2019-03-20T02:58:17.029Z,19.63
2019-03-20T02:59:21.787Z,19.77
2019-03-20T03:00:29.206Z,23.17
2019-03-20T03:01:33.610Z,19.33
2019-03-20T03:02:37.923Z,21.00
2019-03-20T03:03:42.325Z,26.77
2019-03-20T03:04:46.730Z,25.73
2019-03-20T03:06:05.664Z,22.40
2019-03-20T03:06:57.197Z,20.83
2019-03-20T03:08:01.645Z,19.77
2019-03-20T03:09:08.096Z,19.53
2019-03-20T03:10:12.857Z,20.37
2019-03-20T03:11:17.263Z,24.23
2019-03-20T03:12:21.561Z,23.27
2019-03-20T03:13:25.893Z,25.33
2019-03-20T03:14:30.287Z,19.20
2019-03-20T03:15:35.114Z,18.20
2019-03-20T03:16:39.507Z,21.27
2019-03-20T03:17:44.066Z,21.03
2019-03-20T03:18:48.582Z,21.30
2019-03-20T03:19:52.993Z,20.47
2019-03-20T03:20:57.351Z,25.60
2019-03-20T03:22:01.902Z,21.73
2019-03-20T03:23:06.476Z,19.50
2019-03-20T03:24:10.885Z,23.70
2019-03-20T03:25:34.425Z,24.70
2019-03-20T03:26:38.854Z,21.27
2019-03-20T03:27:43.371Z,22.13
2019-03-20T03:28:47.837Z,24.90
2019-03-20T03:29:52.328Z,25.83
2019-03-20T03:30:56.746Z,26.70
2019-03-20T03:32:01.110Z,27.63
2019-03-20T03:33:05.536Z,24.60
2019-03-20T03:34:12.288Z,27.03
2019-03-20T03:35:19.425Z,25.27
2019-03-20T03:36:23.038Z,32.20
2019-03-20T03:37:27.409Z,27.20
2019-03-20T03:38:31.885Z,28.27
2019-03-20T03:39:36.307Z,24.37
2019-03-20T03:40:41.479Z,27.53
2019-03-20T03:41:45.819Z,26.10
2019-03-20T03:42:50.318Z,27.73
2019-03-20T03:43:54.645Z,29.00
2019-03-20T03:44:59.093Z,29.43
2019-03-20T03:46:03.486Z,25.67
2019-03-20T03:47:08.039Z,32.07
2019-03-20T03:48:12.561Z,29.60
2019-03-20T03:49:16.972Z,27.73
2019-03-20T03:50:21.468Z,27.33
2019-03-20T03:51:25.889Z,22.90
2019-03-20T03:52:30.337Z,20.87
2019-03-20T03:53:35.129Z,27.67
2019-03-20T03:54:39.676Z,28.90
2019-03-20T03:55:44.063Z,22.93
2019-03-20T03:56:49.142Z,25.23
2019-03-20T03:57:53.640Z,27.37
2019-03-20T03:58:58.171Z,22.90
2019-03-20T04:00:02.786Z,28.70
2019-03-20T04:01:07.397Z,22.87
2019-03-20T04:02:11.989Z,26.10
2019-03-20T04:03:16.340Z,21.10
2019-03-20T04:04:20.721Z,24.10
2019-03-20T04:05:25.653Z,20.80
2019-03-20T04:06:35.909Z,21.27
2019-03-20T04:07:36.793Z,23.77
2019-03-20T04:08:41.398Z,22.23
2019-03-20T04:09:45.854Z,25.83
2019-03-20T04:10:50.253Z,26.57
2019-03-20T04:11:54.720Z,24.30
2019-03-20T04:12:59.467Z,25.53
2019-03-20T04:14:03.823Z,26.97
2019-03-20T04:15:10.108Z,24.80
2019-03-20T04:16:14.512Z,26.33
2019-03-20T04:17:27.243Z,23.10
2019-03-20T04:18:31.869Z,27.77
2019-03-20T04:19:39.209Z,27.80
2019-03-20T04:20:43.616Z,25.47
2019-03-20T04:21:48.074Z,25.73
2019-03-20T04:22:52.484Z,24.57
2019-03-20T04:23:56.877Z,29.77
2019-03-20T04:25:01.270Z,26.27
2019-03-20T04:26:05.842Z,25.63
2019-03-20T04:27:10.288Z,27.10
2019-03-20T04:28:14.786Z,22.90
2019-03-20T04:29:19.227Z,23.60
2019-03-20T04:30:23.531Z,24.93
2019-03-20T04:31:27.887Z,24.20
2019-03-20T04:32:32.283Z,26.53
2019-03-20T04:33:36.971Z,24.77
2019-03-20T04:34:41.376Z,26.63
2019-03-20T04:35:45.773Z,23.90
2019-03-20T04:36:50.183Z,23.97
2019-03-20T04:37:54.657Z,22.73
2019-03-20T04:38:59.041Z,24.50
2019-03-20T04:40:03.387Z,22.67
2019-03-20T04:41:07.741Z,24.13
2019-03-20T04:42:12.146Z,19.07
2019-03-20T04:43:16.599Z,24.30
2019-03-20T04:44:20.964Z,20.93
2019-03-20T04:45:26.060Z,24.37
2019-03-20T04:46:30.471Z,23.80
2019-03-20T04:47:37.316Z,21.37
2019-03-20T04:48:41.758Z,21.50
2019-03-20T04:49:46.088Z,23.20
2019-03-20T04:50:50.580Z,23.83
2019-03-20T04:51:54.977Z,21.37
2019-03-20T04:52:59.432Z,22.17
2019-03-20T04:54:03.870Z,20.33
2019-03-20T04:55:08.405Z,20.30
2019-03-20T04:56:12.880Z,22.83
2019-03-20T04:57:20.329Z,22.87
2019-03-20T04:58:24.713Z,22.10
2019-03-20T04:59:29.127Z,23.03
2019-03-20T05:00:33.557Z,24.87
2019-03-20T05:01:37.894Z,22.23
2019-03-20T05:02:42.307Z,19.87
2019-03-20T05:03:46.669Z,21.03
2019-03-20T05:04:51.028Z,19.77
2019-03-20T05:05:55.568Z,24.10
2019-03-20T05:06:59.957Z,18.03
2019-03-20T05:08:04.385Z,22.20
2019-03-20T05:09:08.772Z,21.47
2019-03-20T05:10:13.546Z,23.40
2019-03-20T05:11:18.109Z,20.07
2019-03-20T05:12:22.525Z,23.30
2019-03-20T05:13:27.356Z,23.93
2019-03-20T05:14:31.997Z,23.43
2019-03-20T05:15:36.378Z,26.43
2019-03-20T05:16:40.817Z,22.07
2019-03-20T05:17:45.313Z,25.20
2019-03-20T05:18:49.755Z,23.70
2019-03-20T05:19:54.164Z,19.97
2019-03-20T05:20:58.512Z,22.57
2019-03-20T05:22:02.907Z,23.43
2019-03-20T05:23:08.490Z,18.90
2019-03-20T05:24:13.165Z,19.70
2019-03-20T05:25:17.613Z,22.00
2019-03-20T05:26:21.960Z,25.23
2019-03-20T05:27:26.545Z,21.43
2019-03-20T05:28:30.977Z,20.17
2019-03-20T05:29:35.996Z,23.50
2019-03-20T05:30:40.382Z,20.90
2019-03-20T05:31:44.881Z,22.73
2019-03-20T05:32:49.313Z,24.23
2019-03-20T05:33:53.829Z,26.63
2019-03-20T05:34:58.361Z,23.70
2019-03-20T05:36:04.251Z,23.43
2019-03-20T05:37:10.692Z,26.90
2019-03-20T05:38:15.001Z,23.30
2019-03-20T05:39:19.467Z,23.40
2019-03-20T05:40:23.864Z,24.07
2019-03-20T05:41:28.328Z,22.37
2019-03-20T05:42:32.795Z,23.50
2019-03-20T05:43:37.593Z,24.00
2019-03-20T05:44:42.124Z,23.43
2019-03-20T05:45:46.635Z,23.10
2019-03-20T05:46:51.006Z,21.03
2019-03-20T05:47:55.360Z,23.47
2019-03-20T05:48:59.792Z,23.23
2019-03-20T05:50:04.426Z,26.43
2019-03-20T05:51:08.894Z,25.77
2019-03-20T05:52:13.442Z,27.20
2019-03-20T05:53:17.908Z,24.53
2019-03-20T05:54:22.362Z,24.33
2019-03-20T05:55:27.278Z,26.77
2019-03-20T05:56:31.951Z,24.37
2019-03-20T05:57:36.663Z,25.33
2019-03-20T05:58:41.368Z,23.60
2019-03-20T05:59:46.006Z,25.47
2019-03-20T06:00:50.436Z,27.90
2019-03-20T06:01:54.804Z,25.80
2019-03-20T06:02:59.196Z,22.70
2019-03-20T06:04:03.715Z,21.53
2019-03-20T06:05:08.256Z,23.40
2019-03-20T06:06:12.757Z,21.97
2019-03-20T06:07:21.474Z,19.87
2019-03-20T06:08:23.476Z,19.30
2019-03-20T06:09:28.150Z,21.97
2019-03-20T06:10:32.593Z,21.57
2019-03-20T06:11:37.571Z,20.67
2019-03-20T06:12:42.207Z,18.70
2019-03-20T06:13:46.713Z,24.30
2019-03-20T06:14:51.338Z,20.17
2019-03-20T06:15:55.935Z,19.10
2019-03-20T06:17:00.346Z,21.90
2019-03-20T06:18:04.806Z,25.40
2019-03-20T06:19:09.378Z,19.80
2019-03-20T06:20:14.050Z,20.13
2019-03-20T06:21:18.586Z,22.37
2019-03-20T06:22:23.102Z,17.77
2019-03-20T06:23:28.174Z,21.80
2019-03-20T06:24:32.651Z,18.37
2019-03-20T06:25:37.508Z,19.13
2019-03-20T06:26:41.944Z,18.53
2019-03-20T06:27:46.365Z,16.40
2019-03-20T06:28:50.819Z,20.03
2019-03-20T06:29:55.268Z,18.70
2019-03-20T06:30:59.695Z,14.70
2019-03-20T06:32:04.065Z,15.83
2019-03-20T06:33:08.555Z,15.37
2019-03-20T06:34:13.068Z,16.27
2019-03-20T06:35:17.554Z,15.73
2019-03-20T06:36:22.010Z,12.77
2019-03-20T06:37:32.584Z,15.07
2019-03-20T06:38:32.664Z,15.87
2019-03-20T06:39:37.142Z,13.57
2019-03-20T06:40:41.642Z,15.80
2019-03-20T06:41:46.132Z,20.90
2019-03-20T06:42:50.548Z,16.57
2019-03-20T06:43:55.004Z,18.27
2019-03-20T06:44:59.336Z,14.87
2019-03-20T06:46:03.778Z,15.73
2019-03-20T06:47:08.305Z,15.77
2019-03-20T06:48:15.593Z,15.83
2019-03-20T06:49:20.080Z,16.63
2019-03-20T06:50:24.439Z,14.77
2019-03-20T06:51:28.996Z,17.53
2019-03-20T06:52:33.361Z,14.00
2019-03-20T06:53:39.536Z,17.17
2019-03-20T06:54:43.930Z,16.20
2019-03-20T06:55:48.298Z,17.33
2019-03-20T06:56:52.765Z,15.97
2019-03-20T06:57:57.120Z,15.07
2019-03-20T06:59:48.704Z,17.20
2019-03-20T07:01:07.134Z,17.53
2019-03-20T07:02:11.354Z,15.70
2019-03-20T07:03:52.626Z,15.80
2019-03-20T07:05:31.362Z,13.93
2019-03-20T07:07:05.795Z,14.03
2019-03-20T07:08:10.046Z,16.80
2019-03-20T07:09:42.385Z,17.27
2019-03-20T07:11:09.224Z,13.90
2019-03-20T07:12:13.642Z,16.30
2019-03-20T07:13:18.161Z,13.63
2019-03-20T07:14:22.620Z,15.73
2019-03-20T07:15:28.094Z,14.83
2019-03-20T07:16:32.847Z,15.37
2019-03-20T07:17:37.310Z,13.07
2019-03-20T07:18:41.709Z,14.63
2019-03-20T07:19:46.188Z,12.10
2019-03-20T07:20:50.633Z,11.87
2019-03-20T07:21:55.152Z,14.47
2019-03-20T07:22:59.633Z,12.18
2019-03-20T07:24:04.263Z,12.10
2019-03-20T07:25:08.614Z,15.20
2019-03-20T07:26:13.117Z,14.40
2019-03-20T07:27:17.521Z,13.70
2019-03-20T07:28:22.134Z,11.93
2019-03-20T07:29:26.841Z,13.20
2019-03-20T07:30:31.702Z,14.80
2019-03-20T07:31:36.087Z,17.10
2019-03-20T07:32:40.392Z,13.83
2019-03-20T07:33:44.877Z,15.70
2019-03-20T07:34:49.247Z,13.03
2019-03-20T07:35:53.754Z,19.13
2019-03-20T07:36:58.101Z,17.27
2019-03-20T07:38:02.489Z,15.23
2019-03-20T07:39:09.237Z,12.88
2019-03-20T07:40:13.863Z,12.10
2019-03-20T07:41:18.376Z,12.80
2019-03-20T07:42:22.798Z,14.53
2019-03-20T07:43:27.309Z,12.60
2019-03-20T07:44:31.740Z,12.65
2019-03-20T07:45:36.088Z,12.55
2019-03-20T07:46:40.557Z,12.93
2019-03-20T07:47:44.897Z,13.50
2019-03-20T07:48:49.299Z,10.78
2019-03-20T07:49:53.799Z,11.85
2019-03-20T07:50:58.160Z,10.60
2019-03-20T07:52:02.615Z,10.45
2019-03-20T07:53:07.024Z,11.95
2019-03-20T07:54:14.368Z,11.90
2019-03-20T07:55:18.816Z,10.88
2019-03-20T07:56:23.201Z,11.73
2019-03-20T07:57:27.970Z,11.63
2019-03-20T07:58:32.364Z,11.70
2019-03-20T07:59:37.789Z,13.10
2019-03-20T08:00:42.272Z,15.10
2019-03-20T08:01:47.053Z,11.60
2019-03-20T08:02:51.742Z,13.13
2019-03-20T08:03:56.261Z,17.00
2019-03-20T08:05:00.692Z,13.22
2019-03-20T08:06:05.709Z,13.53
2019-03-20T08:07:10.127Z,11.00
2019-03-20T08:08:14.741Z,12.53
2019-03-20T08:09:19.183Z,13.45
2019-03-20T08:10:23.669Z,13.30
2019-03-20T08:11:28.421Z,11.63
2019-03-20T08:12:32.880Z,13.55
2019-03-20T08:13:37.307Z,11.90
2019-03-20T08:14:41.762Z,12.53
2019-03-20T08:15:46.136Z,10.80
2019-03-20T08:16:50.708Z,9.58
2019-03-20T08:17:55.067Z,10.78
2019-03-20T08:18:59.424Z,10.78
2019-03-20T08:20:04.106Z,12.85
2019-03-20T08:21:08.580Z,13.28
2019-03-20T08:22:13.246Z,11.83
2019-03-20T08:23:17.668Z,11.30
2019-03-20T08:24:22.181Z,9.58
2019-03-20T08:25:26.750Z,10.08
2019-03-20T08:26:31.444Z,11.28
2019-03-20T08:27:35.921Z,10.70
2019-03-20T08:28:40.381Z,10.93
2019-03-20T08:29:44.772Z,12.33
2019-03-20T08:30:49.331Z,11.50
2019-03-20T08:31:53.817Z,9.63
2019-03-20T08:32:58.198Z,13.10
2019-03-20T08:34:02.595Z,10.88
2019-03-20T08:35:07.155Z,10.48
2019-03-20T08:36:11.723Z,13.10
2019-03-20T08:37:16.173Z,14.13
2019-03-20T08:38:20.662Z,10.50
2019-03-20T08:39:25.069Z,10.60
2019-03-20T08:40:32.293Z,11.33
2019-03-20T08:41:36.722Z,15.10
2019-03-20T08:42:41.314Z,14.78
2019-03-20T08:43:45.799Z,12.75
2019-03-20T08:44:50.209Z,11.12
2019-03-20T08:45:54.654Z,12.05
2019-03-20T08:46:59.127Z,11.50
2019-03-20T08:48:03.598Z,17.02
2019-03-20T08:49:08.051Z,13.85
2019-03-20T08:50:14.961Z,11.75
2019-03-20T08:51:19.617Z,9.90
2019-03-20T08:52:24.045Z,16.23
2019-03-20T08:53:31.561Z,12.88
2019-03-20T08:54:35.975Z,11.83
2019-03-20T08:55:40.369Z,11.30
2019-03-20T08:56:44.889Z,11.83
2019-03-20T08:57:49.464Z,12.10
2019-03-20T08:58:53.939Z,10.93
2019-03-20T08:59:58.352Z,9.15
2019-03-20T09:01:02.889Z,9.15
2019-03-20T09:02:07.404Z,10.05
2019-03-20T09:03:12.169Z,10.05
2019-03-20T09:04:16.697Z,11.55
2019-03-20T09:05:21.048Z,11.57
2019-03-20T09:06:25.653Z,12.60
2019-03-20T09:07:30.189Z,12.43
2019-03-20T09:08:34.888Z,11.50
2019-03-20T09:09:39.269Z,8.88
2019-03-20T09:10:43.729Z,16.35
2019-03-20T09:11:48.200Z,11.55
2019-03-20T09:12:52.706Z,10.28
2019-03-20T09:13:57.166Z,14.33
2019-03-20T09:15:01.616Z,9.55
2019-03-20T09:16:06.068Z,12.35
2019-03-20T09:17:12.409Z,11.43
2019-03-20T09:18:16.554Z,13.65
2019-03-20T09:19:20.975Z,13.00
2019-03-20T09:20:25.371Z,11.90
2019-03-20T09:21:29.863Z,10.40
2019-03-20T09:22:34.645Z,10.70
2019-03-20T09:23:40.898Z,10.40
2019-03-20T09:24:45.312Z,9.73
2019-03-20T09:25:49.751Z,11.55
2019-03-20T09:27:13.263Z,12.18
2019-03-20T09:28:17.769Z,12.35
2019-03-20T09:29:22.212Z,11.95
2019-03-20T09:30:26.573Z,12.15
2019-03-20T09:31:31.076Z,12.07
2019-03-20T09:32:35.419Z,10.85
2019-03-20T09:33:39.872Z,10.82
2019-03-20T09:34:44.359Z,14.60
2019-03-20T09:35:48.742Z,10.85
2019-03-20T09:36:53.086Z,13.68
2019-03-20T09:37:57.459Z,12.65
2019-03-20T09:39:01.832Z,11.35
2019-03-20T09:40:06.791Z,12.05
2019-03-20T09:41:11.307Z,10.93
2019-03-20T09:42:15.721Z,13.40
2019-03-20T09:43:20.107Z,16.67
2019-03-20T09:44:24.482Z,11.00
2019-03-20T09:45:28.867Z,10.75
2019-03-20T09:46:33.231Z,14.45
2019-03-20T09:47:37.601Z,12.55
2019-03-20T09:48:41.945Z,12.30
2019-03-20T09:49:48.386Z,13.38
2019-03-20T09:50:52.812Z,14.47
2019-03-20T09:51:57.214Z,11.15
2019-03-20T09:53:01.601Z,12.00
2019-03-20T09:54:06.009Z,9.93
2019-03-20T09:55:10.585Z,11.35
2019-03-20T09:56:15.006Z,12.00
2019-03-20T09:57:19.371Z,11.95
2019-03-20T09:58:23.896Z,14.75
2019-03-20T09:59:28.328Z,14.70
2019-03-20T10:00:32.996Z,15.10
2019-03-20T10:01:37.389Z,13.28
2019-03-20T10:02:41.777Z,12.25
2019-03-20T10:03:46.564Z,15.55
2019-03-20T10:04:50.967Z,14.33
2019-03-20T10:05:55.282Z,14.18
2019-03-20T10:06:59.612Z,10.30
2019-03-20T10:08:04.004Z,11.93
2019-03-20T10:09:09.436Z,12.07
2019-03-20T10:10:18.532Z,11.25
2019-03-20T10:11:22.927Z,14.78
2019-03-20T10:12:27.280Z,13.88
2019-03-20T10:13:31.863Z,13.72
2019-03-20T10:14:36.329Z,15.03
2019-03-20T10:15:40.669Z,17.45
2019-03-20T10:16:45.098Z,15.35
2019-03-20T10:17:52.514Z,12.65
2019-03-20T10:18:56.925Z,12.98
2019-03-20T10:20:01.421Z,11.05
2019-03-20T10:21:05.872Z,14.40
2019-03-20T10:22:10.221Z,16.50
2019-03-20T10:23:14.692Z,14.00
2019-03-20T10:24:19.058Z,10.68
2019-03-20T10:25:23.452Z,12.80
2019-03-20T10:26:27.898Z,13.13
2019-03-20T10:27:32.688Z,12.60
2019-03-20T10:28:37.439Z,11.80
2019-03-20T10:29:41.771Z,15.00
2019-03-20T10:30:46.157Z,13.45
2019-03-20T10:31:50.562Z,14.80
2019-03-20T10:32:55.073Z,12.70
2019-03-20T10:33:59.547Z,11.43
2019-03-20T10:35:04.139Z,13.58
2019-03-20T10:36:08.452Z,11.57
2019-03-20T10:37:13.074Z,12.45
2019-03-20T10:38:17.435Z,13.53
2019-03-20T10:39:21.941Z,12.33
2019-03-20T10:40:26.569Z,17.65
2019-03-20T10:41:30.880Z,11.30
2019-03-20T10:42:35.262Z,13.10
2019-03-20T10:43:39.791Z,15.48
2019-03-20T10:44:44.218Z,14.68
2019-03-20T10:45:48.634Z,13.00
2019-03-20T10:46:53.205Z,12.43
2019-03-20T10:47:57.614Z,14.00
2019-03-20T10:49:01.967Z,16.05
2019-03-20T10:50:08.219Z,14.70
2019-03-20T10:51:12.780Z,12.28
2019-03-20T10:52:17.233Z,14.38
2019-03-20T10:53:21.589Z,12.75
2019-03-20T10:54:26.116Z,13.68
2019-03-20T10:55:30.576Z,14.43
2019-03-20T10:56:35.210Z,10.63
2019-03-20T10:57:39.556Z,13.00
2019-03-20T10:58:43.949Z,10.90
2019-03-20T10:59:48.465Z,10.30
2019-03-20T11:00:52.911Z,12.68
2019-03-20T11:01:57.295Z,10.40
2019-03-20T11:03:01.658Z,13.28
2019-03-20T11:04:06.124Z,9.70
2019-03-20T11:05:10.831Z,11.55
2019-03-20T11:06:15.264Z,8.65
2019-03-20T11:07:19.765Z,13.78
2019-03-20T11:08:24.111Z,9.15
2019-03-20T11:09:28.591Z,10.82
2019-03-20T11:10:33.139Z,7.80
2019-03-20T11:11:37.501Z,9.53
2019-03-20T11:12:42.069Z,11.57
2019-03-20T11:13:46.427Z,10.35
2019-03-20T11:14:50.838Z,7.10
2019-03-20T11:15:55.260Z,8.08
2019-03-20T11:16:59.668Z,7.53
2019-03-20T11:18:04.430Z,6.25
2019-03-20T11:19:09.141Z,6.60
2019-03-20T11:20:14.961Z,6.33
2019-03-20T11:21:19.369Z,5.08
2019-03-20T11:22:23.734Z,7.90
2019-03-20T11:23:28.140Z,4.65
2019-03-20T11:24:32.700Z,5.55
2019-03-20T11:25:37.103Z,5.25
2019-03-20T11:26:41.494Z,6.78
2019-03-20T11:27:46.028Z,6.95
2019-03-20T11:28:50.362Z,6.97
2019-03-20T11:29:54.843Z,6.83
2019-03-20T11:30:59.280Z,8.00
2019-03-20T11:32:04.121Z,5.45
2019-03-20T11:33:10.521Z,6.58
2019-03-20T11:34:15.819Z,6.00
2019-03-20T11:35:20.430Z,5.60
2019-03-20T11:36:24.978Z,5.12
2019-03-20T11:37:29.365Z,4.62
2019-03-20T11:38:33.818Z,7.10
2019-03-20T11:39:39.397Z,4.58
2019-03-20T11:40:43.798Z,6.12
2019-03-20T11:41:48.179Z,4.08
2019-03-20T11:42:52.504Z,4.28
2019-03-20T11:43:56.952Z,5.03
2019-03-20T11:45:01.317Z,3.67
2019-03-20T11:46:05.779Z,3.40
2019-03-20T11:47:10.231Z,4.97
2019-03-20T11:48:14.579Z,5.33
2019-03-20T11:49:18.932Z,7.65
2019-03-20T11:50:28.632Z,5.05
2019-03-20T11:51:33.307Z,4.12
2019-03-20T11:52:37.955Z,6.65
2019-03-20T11:53:42.428Z,6.05
2019-03-20T11:54:46.955Z,5.05
2019-03-20T11:55:51.556Z,3.87
2019-03-20T11:56:56.208Z,6.55
2019-03-20T11:58:00.664Z,3.80
2019-03-20T11:59:05.277Z,5.17
2019-03-20T12:00:12.140Z,4.33
2019-03-20T12:01:16.606Z,4.83
2019-03-20T12:02:27.949Z,5.80
2019-03-20T12:03:27.887Z,3.25
2019-03-20T12:04:32.716Z,5.80
2019-03-20T12:05:37.211Z,3.60
2019-03-20T12:06:49.984Z,7.08
2019-03-20T12:07:54.508Z,4.08
2019-03-20T12:08:59.519Z,4.12
2019-03-20T12:10:04.899Z,5.33
2019-03-20T12:11:11.294Z,3.67
2019-03-20T12:12:15.782Z,5.58
2019-03-20T12:13:20.341Z,5.97
2019-03-20T12:14:24.951Z,5.33
2019-03-20T12:15:29.547Z,5.55
2019-03-20T12:16:36.786Z,8.68
2019-03-20T12:17:41.408Z,4.05
2019-03-20T12:18:45.893Z,6.45
2019-03-20T12:19:50.253Z,4.12
2019-03-20T12:20:54.837Z,7.22
2019-03-20T12:21:59.438Z,4.40
2019-03-20T12:23:04.376Z,6.33
2019-03-20T12:24:09.090Z,4.78
2019-03-20T12:25:16.146Z,4.12
2019-03-20T12:26:20.585Z,4.92
2019-03-20T12:27:25.225Z,5.78
2019-03-20T12:28:29.805Z,5.45
2019-03-20T12:29:34.905Z,5.45
2019-03-20T12:30:39.824Z,5.08
2019-03-20T12:31:44.205Z,4.45
2019-03-20T12:32:48.702Z,4.92
2019-03-20T12:33:53.348Z,6.15
2019-03-20T12:34:57.875Z,6.72
2019-03-20T12:36:04.800Z,6.92
2019-03-20T12:37:09.551Z,6.00
2019-03-20T12:38:15.294Z,4.37
2019-03-20T12:39:20.045Z,6.92
2019-03-20T12:40:26.131Z,5.30
2019-03-20T12:41:30.594Z,4.83
2019-03-20T12:42:35.122Z,5.08
2019-03-20T12:43:39.894Z,7.55
2019-03-20T12:44:44.440Z,3.92
2019-03-20T12:45:48.977Z,3.40
2019-03-20T12:46:53.445Z,4.60
2019-03-20T12:47:57.960Z,4.75
2019-03-20T12:49:02.434Z,4.53
2019-03-20T12:50:07.453Z,6.35
2019-03-20T12:51:12.052Z,4.47
2019-03-20T12:52:16.727Z,4.22
2019-03-20T12:53:21.661Z,4.53
2019-03-20T12:54:26.234Z,8.15
2019-03-20T12:55:31.221Z,4.42
2019-03-20T12:56:35.808Z,8.68
2019-03-20T12:57:40.286Z,6.83
2019-03-20T12:58:44.780Z,5.40
2019-03-20T12:59:49.330Z,3.75
2019-03-20T13:00:54.654Z,4.78
2019-03-20T13:01:59.259Z,5.85
2019-03-20T13:03:03.885Z,8.65
2019-03-20T13:04:08.606Z,3.55
2019-03-20T13:05:13.838Z,4.58
2019-03-20T13:06:18.386Z,6.05
2019-03-20T13:07:22.781Z,5.30
2019-03-20T13:08:27.369Z,5.95
2019-03-20T13:09:32.091Z,6.65
2019-03-20T13:10:36.825Z,5.12
2019-03-20T13:11:41.410Z,5.40
2019-03-20T13:12:46.166Z,5.20
2019-03-20T13:13:52.324Z,4.85
2019-03-20T13:14:56.948Z,4.17
2019-03-20T13:16:02.115Z,6.03
2019-03-20T13:17:06.773Z,4.62
2019-03-20T13:18:11.437Z,8.35
2019-03-20T13:19:15.943Z,4.62
2019-03-20T13:20:20.836Z,5.62
2019-03-20T13:21:25.356Z,3.77
2019-03-20T13:22:30.079Z,5.40
2019-03-20T13:23:34.983Z,5.92
2019-03-20T13:24:39.750Z,8.30
2019-03-20T13:25:44.492Z,5.25
2019-03-20T13:26:49.166Z,5.17
2019-03-20T13:27:57.190Z,4.67
2019-03-20T13:29:01.791Z,5.03
2019-03-20T13:30:19.833Z,5.22
2019-03-20T13:31:19.142Z,6.72
2019-03-20T13:32:23.841Z,8.08
2019-03-20T13:33:28.410Z,5.12
2019-03-20T13:34:35.950Z,4.83
2019-03-20T13:35:40.466Z,4.30
2019-03-20T13:36:45.212Z,7.58
2019-03-20T13:37:49.617Z,5.17
2019-03-20T13:38:56.477Z,5.20
2019-03-20T13:40:00.744Z,5.12
2019-03-20T13:41:05.523Z,6.03
2019-03-20T13:42:10.119Z,6.70
2019-03-20T13:43:14.581Z,6.80
2019-03-20T13:44:19.295Z,3.95
2019-03-20T13:45:23.998Z,5.37
2019-03-20T13:46:28.699Z,4.95
2019-03-20T13:47:33.233Z,9.60
2019-03-20T13:48:37.785Z,4.20
2019-03-20T13:49:42.863Z,6.83
2019-03-20T13:50:47.552Z,6.55
2019-03-20T13:51:52.925Z,5.67
2019-03-20T13:52:57.616Z,7.47
2019-03-20T13:54:02.194Z,5.12
2019-03-20T13:55:07.187Z,7.35
2019-03-20T13:56:11.851Z,4.45
2019-03-20T13:57:16.354Z,4.25
2019-03-20T13:58:20.923Z,5.22
2019-03-20T13:59:25.415Z,6.00
2019-03-20T14:00:30.033Z,5.12
2019-03-20T14:01:34.447Z,6.85
2019-03-20T14:02:39.151Z,7.97
2019-03-20T14:03:43.676Z,4.03